CFG2289 EDDH-EDDF
Flight info
| Callsign | CFG2289 |
|---|---|
| Flight time | 0h 47m |
| Altitude | 30000 |
| Route | AMLUH2C AMLUH M852 DENIX DCT RIMET/N0451F310 T157 KOKEB/N0407F230 T157 KERAX KERAX5A |
| Aircraft | A320/M-SDE3FGHIRWY/LB1 |
Departure
| Time | 2026-05-06 13:28 |
|---|---|
| Airport | Hamburg Helmut Schmidt Airport (EDDH) |
Arrival
| Time | 2026-05-06 14:15 |
|---|---|
| Airport | Frankfurt Main Airport (EDDF) |
| Time | Latitude | Longitude | Altitude | Speed | Heading |
|---|---|---|---|---|---|
| 2026-05-06 13:02 | 53.62853 | 9.99048 | 41 ft | 0 kts | 63° |
| 2026-05-06 13:15 | 53.62852 | 9.99043 | 44 ft | 3 kts | 64° |
| 2026-05-06 13:16 | 53.62840 | 9.99003 | 44 ft | 4 kts | 67° |
| 2026-05-06 13:16 | 53.62835 | 9.98979 | 41 ft | 0 kts | 74° |
| 2026-05-06 13:16 | 53.62833 | 9.98965 | 43 ft | 1 kts | 106° |
| 2026-05-06 13:17 | 53.62833 | 9.98964 | 40 ft | 0 kts | 107° |
| 2026-05-06 13:17 | 53.62833 | 9.98966 | 43 ft | 1 kts | 108° |
| 2026-05-06 13:17 | 53.62820 | 9.98985 | 43 ft | 2 kts | 163° |
| 2026-05-06 13:17 | 53.62810 | 9.98981 | 43 ft | 1 kts | 191° |
| 2026-05-06 13:18 | 53.62797 | 9.98979 | 44 ft | 3 kts | 185° |
| 2026-05-06 13:18 | 53.62784 | 9.98981 | 44 ft | 0 kts | 171° |
| 2026-05-06 13:19 | 53.62780 | 9.98982 | 41 ft | 2 kts | 169° |
| 2026-05-06 13:19 | 53.62747 | 9.99006 | 44 ft | 8 kts | 152° |
| 2026-05-06 13:19 | 53.62679 | 9.99062 | 42 ft | 13 kts | 156° |
| 2026-05-06 13:20 | 53.62606 | 9.99116 | 44 ft | 10 kts | 170° |
| 2026-05-06 13:20 | 53.62560 | 9.99052 | 44 ft | 9 kts | 257° |
| 2026-05-06 13:20 | 53.62549 | 9.98955 | 42 ft | 8 kts | 259° |
| 2026-05-06 13:20 | 53.62539 | 9.98868 | 43 ft | 7 kts | 258° |
| 2026-05-06 13:21 | 53.62529 | 9.98791 | 43 ft | 6 kts | 258° |
| 2026-05-06 13:21 | 53.62520 | 9.98717 | 40 ft | 9 kts | 259° |
| 2026-05-06 13:21 | 53.62503 | 9.98561 | 42 ft | 16 kts | 259° |
| 2026-05-06 13:21 | 53.62484 | 9.98389 | 42 ft | 14 kts | 259° |
| 2026-05-06 13:22 | 53.62463 | 9.98230 | 40 ft | 13 kts | 253° |
| 2026-05-06 13:22 | 53.62426 | 9.98093 | 41 ft | 12 kts | 238° |
| 2026-05-06 13:22 | 53.62376 | 9.97980 | 41 ft | 12 kts | 231° |
| 2026-05-06 13:22 | 53.62326 | 9.97879 | 41 ft | 13 kts | 230° |
| 2026-05-06 13:23 | 53.62253 | 9.97730 | 41 ft | 21 kts | 230° |
| 2026-05-06 13:23 | 53.62140 | 9.97507 | 40 ft | 29 kts | 229° |
| 2026-05-06 13:23 | 53.61990 | 9.97209 | 39 ft | 37 kts | 230° |
| 2026-05-06 13:23 | 53.61838 | 9.96894 | 39 ft | 33 kts | 231° |
| 2026-05-06 13:24 | 53.61723 | 9.96659 | 38 ft | 20 kts | 230° |
| 2026-05-06 13:24 | 53.61686 | 9.96468 | 38 ft | 17 kts | 300° |
| 2026-05-06 13:24 | 53.61772 | 9.96424 | 39 ft | 13 kts | 2° |
| 2026-05-06 13:24 | 53.61860 | 9.96458 | 40 ft | 14 kts | 30° |
| 2026-05-06 13:25 | 53.61902 | 9.96528 | 40 ft | 0 kts | 50° |
| 2026-05-06 13:27 | 53.61906 | 9.96535 | 40 ft | 5 kts | 50° |
| 2026-05-06 13:27 | 53.62055 | 9.96837 | 40 ft | 69 kts | 50° |
| 2026-05-06 13:27 | 53.62489 | 9.97720 | 41 ft | 127 kts | 50° |
| 2026-05-06 13:28 | 53.63130 | 9.99035 | 318 ft | 148 kts | 50° |
| 2026-05-06 13:28 | 53.63779 | 10.00341 | 1051 ft | 145 kts | 50° |
| 2026-05-06 13:28 | 53.64448 | 10.01653 | 1698 ft | 149 kts | 49° |
| 2026-05-06 13:28 | 53.65145 | 10.02985 | 2336 ft | 149 kts | 48° |
| 2026-05-06 13:29 | 53.65831 | 10.04259 | 2980 ft | 148 kts | 49° |
| 2026-05-06 13:29 | 53.66522 | 10.05650 | 3378 ft | 165 kts | 52° |
| 2026-05-06 13:29 | 53.67284 | 10.07265 | 3647 ft | 188 kts | 53° |
| 2026-05-06 13:29 | 53.68131 | 10.09059 | 4086 ft | 201 kts | 53° |
| 2026-05-06 13:30 | 53.69019 | 10.10920 | 4707 ft | 206 kts | 53° |
| 2026-05-06 13:30 | 53.69898 | 10.12884 | 4953 ft | 210 kts | 63° |
| 2026-05-06 13:30 | 53.70312 | 10.15216 | 5008 ft | 209 kts | 86° |
| 2026-05-06 13:30 | 53.70092 | 10.17643 | 5014 ft | 213 kts | 110° |
| 2026-05-06 13:31 | 53.69199 | 10.19791 | 5309 ft | 237 kts | 137° |
| 2026-05-06 13:31 | 53.67707 | 10.21095 | 6018 ft | 248 kts | 161° |
| 2026-05-06 13:31 | 53.65978 | 10.21903 | 6509 ft | 268 kts | 162° |
| 2026-05-06 13:31 | 53.64149 | 10.22733 | 7227 ft | 275 kts | 163° |
| 2026-05-06 13:32 | 53.62282 | 10.23571 | 8035 ft | 280 kts | 163° |
| 2026-05-06 13:32 | 53.60386 | 10.24419 | 8865 ft | 284 kts | 164° |
| 2026-05-06 13:32 | 53.58447 | 10.25154 | 9689 ft | 289 kts | 175° |
| 2026-05-06 13:32 | 53.56404 | 10.25191 | 10205 ft | 304 kts | 180° |
| 2026-05-06 13:33 | 53.54213 | 10.25163 | 10440 ft | 327 kts | 179° |
| 2026-05-06 13:33 | 53.51859 | 10.25132 | 10754 ft | 344 kts | 179° |
| 2026-05-06 13:33 | 53.49446 | 10.25095 | 11419 ft | 349 kts | 178° |
| 2026-05-06 13:33 | 53.47008 | 10.25055 | 12185 ft | 351 kts | 179° |
| 2026-05-06 13:34 | 53.44554 | 10.25014 | 12920 ft | 354 kts | 179° |
| 2026-05-06 13:34 | 53.42085 | 10.24976 | 13681 ft | 356 kts | 179° |
| 2026-05-06 13:34 | 53.39593 | 10.24939 | 14326 ft | 359 kts | 180° |
| 2026-05-06 13:34 | 53.37086 | 10.24900 | 15033 ft | 361 kts | 180° |
| 2026-05-06 13:35 | 53.34563 | 10.24859 | 15766 ft | 364 kts | 180° |
| 2026-05-06 13:35 | 53.32016 | 10.24819 | 16447 ft | 367 kts | 180° |
| 2026-05-06 13:35 | 53.29452 | 10.24780 | 17080 ft | 370 kts | 181° |
| 2026-05-06 13:35 | 53.26869 | 10.24739 | 17703 ft | 373 kts | 181° |
| 2026-05-06 13:36 | 53.24269 | 10.24695 | 18296 ft | 376 kts | 181° |
| 2026-05-06 13:36 | 53.21643 | 10.24653 | 18826 ft | 379 kts | 181° |
| 2026-05-06 13:36 | 53.18994 | 10.24612 | 19353 ft | 382 kts | 181° |
| 2026-05-06 13:36 | 53.16322 | 10.24571 | 19877 ft | 386 kts | 181° |
| 2026-05-06 13:37 | 53.13626 | 10.24534 | 20387 ft | 389 kts | 181° |
| 2026-05-06 13:37 | 53.10901 | 10.24497 | 20907 ft | 392 kts | 181° |
| 2026-05-06 13:37 | 53.09088 | 10.24472 | 21230 ft | 394 kts | 181° |
| 2026-05-06 13:37 | 53.06332 | 10.24431 | 21724 ft | 398 kts | 181° |
| 2026-05-06 13:38 | 53.03555 | 10.24388 | 22197 ft | 401 kts | 181° |
| 2026-05-06 13:38 | 53.00755 | 10.24349 | 22673 ft | 404 kts | 181° |
| 2026-05-06 13:38 | 52.97940 | 10.24312 | 23142 ft | 407 kts | 181° |
| 2026-05-06 13:38 | 52.95101 | 10.24271 | 23583 ft | 408 kts | 181° |
| 2026-05-06 13:39 | 52.92252 | 10.24228 | 23955 ft | 411 kts | 181° |
| 2026-05-06 13:39 | 52.89383 | 10.24183 | 24319 ft | 413 kts | 180° |
| 2026-05-06 13:39 | 52.86496 | 10.24134 | 24671 ft | 416 kts | 180° |
| 2026-05-06 13:39 | 52.83597 | 10.24084 | 25028 ft | 418 kts | 180° |
| 2026-05-06 13:40 | 52.79697 | 10.24021 | 25523 ft | 420 kts | 179° |
| 2026-05-06 13:40 | 52.77759 | 10.23993 | 25775 ft | 421 kts | 179° |
| 2026-05-06 13:40 | 52.74823 | 10.23956 | 26110 ft | 423 kts | 179° |
| 2026-05-06 13:40 | 52.71872 | 10.23916 | 26440 ft | 425 kts | 179° |
| 2026-05-06 13:41 | 52.68900 | 10.23872 | 26748 ft | 428 kts | 179° |
| 2026-05-06 13:41 | 52.65918 | 10.23827 | 27077 ft | 430 kts | 179° |
| 2026-05-06 13:41 | 52.62924 | 10.23618 | 27385 ft | 433 kts | 187° |
| 2026-05-06 13:41 | 52.59952 | 10.22736 | 27689 ft | 435 kts | 189° |
| 2026-05-06 13:42 | 52.56969 | 10.21802 | 27986 ft | 437 kts | 189° |
| 2026-05-06 13:42 | 52.53977 | 10.20851 | 28299 ft | 438 kts | 190° |
| 2026-05-06 13:42 | 52.50980 | 10.19887 | 28604 ft | 440 kts | 191° |
| 2026-05-06 13:42 | 52.47974 | 10.18920 | 28887 ft | 441 kts | 190° |
| 2026-05-06 13:43 | 52.44953 | 10.17955 | 29154 ft | 443 kts | 190° |
| 2026-05-06 13:43 | 52.41919 | 10.16994 | 29401 ft | 445 kts | 190° |
| 2026-05-06 13:43 | 52.38879 | 10.16038 | 29708 ft | 445 kts | 190° |
| 2026-05-06 13:43 | 52.35842 | 10.15085 | 29822 ft | 444 kts | 190° |
| 2026-05-06 13:44 | 52.32808 | 10.14134 | 29820 ft | 444 kts | 191° |
| 2026-05-06 13:44 | 52.26770 | 10.12232 | 29818 ft | 441 kts | 192° |
| 2026-05-06 13:45 | 52.20747 | 10.10342 | 29808 ft | 441 kts | 191° |
| 2026-05-06 13:45 | 52.14744 | 10.08464 | 29399 ft | 435 kts | 192° |
| 2026-05-06 13:45 | 52.11772 | 10.07532 | 28393 ft | 435 kts | 192° |
| 2026-05-06 13:46 | 52.08795 | 10.06601 | 27634 ft | 434 kts | 192° |
| 2026-05-06 13:46 | 52.05827 | 10.05679 | 27554 ft | 436 kts | 192° |
| 2026-05-06 13:46 | 52.02845 | 10.04760 | 27479 ft | 436 kts | 192° |
| 2026-05-06 13:46 | 51.99864 | 10.03843 | 27398 ft | 436 kts | 192° |
| 2026-05-06 13:47 | 51.96885 | 10.02922 | 27328 ft | 436 kts | 192° |
| 2026-05-06 13:47 | 51.93908 | 10.01997 | 27225 ft | 435 kts | 192° |
| 2026-05-06 13:47 | 51.90931 | 10.01074 | 27126 ft | 435 kts | 192° |
| 2026-05-06 13:47 | 51.87963 | 10.00159 | 26953 ft | 434 kts | 192° |
| 2026-05-06 13:48 | 51.85041 | 9.99258 | 26753 ft | 432 kts | 192° |
| 2026-05-06 13:48 | 51.82108 | 9.98356 | 26512 ft | 426 kts | 192° |
| 2026-05-06 13:48 | 51.79206 | 9.97465 | 26254 ft | 423 kts | 192° |
| 2026-05-06 13:48 | 51.76315 | 9.96583 | 25989 ft | 422 kts | 192° |
| 2026-05-06 13:49 | 51.73442 | 9.95701 | 25737 ft | 420 kts | 192° |
| 2026-05-06 13:49 | 51.70583 | 9.94781 | 25486 ft | 418 kts | 193° |
| 2026-05-06 13:49 | 51.67738 | 9.93851 | 25236 ft | 416 kts | 193° |
| 2026-05-06 13:49 | 51.64904 | 9.92941 | 24980 ft | 415 kts | 192° |
| 2026-05-06 13:50 | 51.62074 | 9.92061 | 24770 ft | 413 kts | 192° |
| 2026-05-06 13:50 | 51.59265 | 9.91208 | 24765 ft | 410 kts | 192° |
| 2026-05-06 13:50 | 51.56466 | 9.90367 | 24767 ft | 409 kts | 192° |
| 2026-05-06 13:50 | 51.53677 | 9.89534 | 24512 ft | 405 kts | 192° |
| 2026-05-06 13:51 | 51.50926 | 9.88708 | 23893 ft | 401 kts | 193° |
| 2026-05-06 13:51 | 51.48194 | 9.87886 | 23267 ft | 398 kts | 193° |
| 2026-05-06 13:51 | 51.45486 | 9.87073 | 22570 ft | 394 kts | 193° |
| 2026-05-06 13:51 | 51.42802 | 9.86268 | 21630 ft | 391 kts | 192° |
| 2026-05-06 13:52 | 51.40097 | 9.85452 | 20728 ft | 403 kts | 192° |
| 2026-05-06 13:52 | 51.37337 | 9.84617 | 20066 ft | 401 kts | 193° |
| 2026-05-06 13:52 | 51.34641 | 9.83809 | 19849 ft | 387 kts | 192° |
| 2026-05-06 13:52 | 51.32040 | 9.83034 | 19732 ft | 372 kts | 192° |
| 2026-05-06 13:53 | 51.29550 | 9.82295 | 19753 ft | 358 kts | 193° |
| 2026-05-06 13:53 | 51.27119 | 9.81574 | 19756 ft | 354 kts | 193° |
| 2026-05-06 13:53 | 51.24717 | 9.80861 | 19440 ft | 349 kts | 193° |
| 2026-05-06 13:53 | 51.22340 | 9.80150 | 18967 ft | 347 kts | 193° |
| 2026-05-06 13:54 | 51.19979 | 9.79439 | 18509 ft | 345 kts | 193° |
| 2026-05-06 13:54 | 51.17629 | 9.78735 | 18063 ft | 343 kts | 193° |
| 2026-05-06 13:54 | 51.15299 | 9.78042 | 17529 ft | 341 kts | 192° |
| 2026-05-06 13:54 | 51.12963 | 9.77350 | 17029 ft | 339 kts | 192° |
| 2026-05-06 13:55 | 51.10648 | 9.76663 | 16542 ft | 338 kts | 192° |
| 2026-05-06 13:55 | 51.08345 | 9.75979 | 16069 ft | 336 kts | 192° |
| 2026-05-06 13:55 | 51.06055 | 9.75298 | 15610 ft | 335 kts | 192° |
| 2026-05-06 13:55 | 51.03769 | 9.74620 | 15166 ft | 333 kts | 192° |
| 2026-05-06 13:56 | 51.01530 | 9.73957 | 14733 ft | 331 kts | 192° |
| 2026-05-06 13:56 | 50.99270 | 9.73292 | 14304 ft | 330 kts | 192° |
| 2026-05-06 13:56 | 50.96984 | 9.72622 | 13868 ft | 328 kts | 192° |
| 2026-05-06 13:56 | 50.94777 | 9.71976 | 13444 ft | 327 kts | 192° |
| 2026-05-06 13:57 | 50.92548 | 9.71320 | 12976 ft | 325 kts | 192° |
| 2026-05-06 13:57 | 50.90332 | 9.70666 | 12523 ft | 323 kts | 192° |
| 2026-05-06 13:57 | 50.88133 | 9.70021 | 12071 ft | 321 kts | 192° |
| 2026-05-06 13:57 | 50.85944 | 9.69381 | 11626 ft | 318 kts | 192° |
| 2026-05-06 13:58 | 50.83773 | 9.68745 | 11189 ft | 316 kts | 192° |
| 2026-05-06 13:58 | 50.81618 | 9.68112 | 10806 ft | 314 kts | 192° |
| 2026-05-06 13:58 | 50.79472 | 9.67481 | 10728 ft | 314 kts | 192° |
| 2026-05-06 13:58 | 50.77323 | 9.66851 | 10742 ft | 315 kts | 192° |
| 2026-05-06 13:59 | 50.75171 | 9.66222 | 10738 ft | 314 kts | 192° |
| 2026-05-06 13:59 | 50.73023 | 9.65596 | 10737 ft | 314 kts | 192° |
| 2026-05-06 13:59 | 50.70868 | 9.64969 | 10726 ft | 315 kts | 192° |
| 2026-05-06 13:59 | 50.68717 | 9.64341 | 10731 ft | 315 kts | 192° |
| 2026-05-06 14:00 | 50.66563 | 9.63714 | 10740 ft | 315 kts | 192° |
| 2026-05-06 14:00 | 50.64409 | 9.63091 | 10738 ft | 314 kts | 192° |
| 2026-05-06 14:00 | 50.62258 | 9.62469 | 10737 ft | 314 kts | 192° |
| 2026-05-06 14:00 | 50.60110 | 9.61847 | 10741 ft | 314 kts | 192° |
| 2026-05-06 14:01 | 50.57951 | 9.61220 | 10740 ft | 315 kts | 192° |
| 2026-05-06 14:01 | 50.55807 | 9.60541 | 10739 ft | 314 kts | 196° |
| 2026-05-06 14:01 | 50.53734 | 9.59468 | 10742 ft | 313 kts | 204° |
| 2026-05-06 14:01 | 50.51786 | 9.57948 | 10737 ft | 312 kts | 212° |
| 2026-05-06 14:02 | 50.50004 | 9.56012 | 10745 ft | 311 kts | 219° |
| 2026-05-06 14:02 | 50.48412 | 9.53717 | 10741 ft | 311 kts | 226° |
| 2026-05-06 14:02 | 50.47037 | 9.51093 | 10740 ft | 312 kts | 234° |
| 2026-05-06 14:02 | 50.45904 | 9.48181 | 10750 ft | 313 kts | 242° |
| 2026-05-06 14:03 | 50.45043 | 9.45047 | 10744 ft | 314 kts | 250° |
| 2026-05-06 14:03 | 50.44415 | 9.41768 | 10748 ft | 313 kts | 252° |
| 2026-05-06 14:03 | 50.43801 | 9.38497 | 10755 ft | 313 kts | 252° |
| 2026-05-06 14:03 | 50.43162 | 9.35228 | 10754 ft | 313 kts | 248° |
| 2026-05-06 14:04 | 50.42039 | 9.32336 | 10753 ft | 312 kts | 225° |
| 2026-05-06 14:04 | 50.40258 | 9.30432 | 10755 ft | 313 kts | 202° |
| 2026-05-06 14:04 | 50.38161 | 9.29495 | 10753 ft | 314 kts | 194° |
| 2026-05-06 14:04 | 50.36033 | 9.28749 | 10593 ft | 311 kts | 194° |
| 2026-05-06 14:05 | 50.33930 | 9.28013 | 10128 ft | 310 kts | 194° |
| 2026-05-06 14:05 | 50.31843 | 9.27283 | 9901 ft | 301 kts | 194° |
| 2026-05-06 14:05 | 50.29864 | 9.26596 | 9774 ft | 289 kts | 194° |
| 2026-05-06 14:05 | 50.27938 | 9.25923 | 9645 ft | 278 kts | 194° |
| 2026-05-06 14:06 | 50.26063 | 9.25284 | 9360 ft | 273 kts | 194° |
| 2026-05-06 14:06 | 50.24235 | 9.24667 | 9185 ft | 264 kts | 194° |
| 2026-05-06 14:06 | 50.22473 | 9.24084 | 9056 ft | 254 kts | 194° |
| 2026-05-06 14:06 | 50.20819 | 9.23337 | 8920 ft | 242 kts | 208° |
| 2026-05-06 14:07 | 50.19512 | 9.21779 | 8671 ft | 235 kts | 231° |
| 2026-05-06 14:07 | 50.18722 | 9.19571 | 8352 ft | 234 kts | 247° |
| 2026-05-06 14:07 | 50.18115 | 9.17207 | 7980 ft | 234 kts | 247° |
| 2026-05-06 14:07 | 50.17517 | 9.14848 | 7610 ft | 234 kts | 246° |
| 2026-05-06 14:08 | 50.16917 | 9.12504 | 7280 ft | 231 kts | 244° |
| 2026-05-06 14:08 | 50.16222 | 9.10246 | 6921 ft | 231 kts | 244° |
| 2026-05-06 14:08 | 50.15613 | 9.07943 | 6599 ft | 229 kts | 247° |
| 2026-05-06 14:08 | 50.15064 | 9.05618 | 6254 ft | 228 kts | 248° |
| 2026-05-06 14:09 | 50.14524 | 9.03290 | 5902 ft | 228 kts | 248° |
| 2026-05-06 14:09 | 50.13985 | 9.00978 | 5563 ft | 226 kts | 248° |
| 2026-05-06 14:09 | 50.13448 | 8.98681 | 5211 ft | 225 kts | 248° |
| 2026-05-06 14:09 | 50.12911 | 8.96384 | 4842 ft | 225 kts | 248° |
| 2026-05-06 14:10 | 50.12377 | 8.94102 | 4520 ft | 223 kts | 248° |
| 2026-05-06 14:10 | 50.11848 | 8.91847 | 4174 ft | 222 kts | 249° |
| 2026-05-06 14:10 | 50.11321 | 8.89604 | 3994 ft | 219 kts | 249° |
| 2026-05-06 14:10 | 50.10800 | 8.87385 | 3994 ft | 213 kts | 249° |
| 2026-05-06 14:11 | 50.10306 | 8.85280 | 3886 ft | 202 kts | 249° |
| 2026-05-06 14:11 | 50.09826 | 8.83243 | 3660 ft | 199 kts | 249° |
| 2026-05-06 14:11 | 50.09354 | 8.81240 | 3413 ft | 196 kts | 249° |
| 2026-05-06 14:11 | 50.08887 | 8.79260 | 3163 ft | 194 kts | 250° |
| 2026-05-06 14:12 | 50.08423 | 8.77295 | 2904 ft | 193 kts | 249° |
| 2026-05-06 14:12 | 50.07962 | 8.75342 | 2642 ft | 191 kts | 249° |
| 2026-05-06 14:12 | 50.07508 | 8.73421 | 2407 ft | 187 kts | 250° |
| 2026-05-06 14:12 | 50.07065 | 8.71550 | 2158 ft | 181 kts | 250° |
| 2026-05-06 14:13 | 50.06638 | 8.69749 | 1900 ft | 174 kts | 250° |
| 2026-05-06 14:13 | 50.06227 | 8.68012 | 1672 ft | 169 kts | 249° |
| 2026-05-06 14:13 | 50.05873 | 8.66293 | 1479 ft | 165 kts | 255° |
| 2026-05-06 14:13 | 50.05734 | 8.64574 | 1270 ft | 160 kts | 263° |
| 2026-05-06 14:14 | 50.05539 | 8.62970 | 1078 ft | 146 kts | 250° |
| 2026-05-06 14:14 | 50.05187 | 8.61500 | 889 ft | 145 kts | 246° |
| 2026-05-06 14:14 | 50.04841 | 8.60050 | 619 ft | 139 kts | 248° |
| 2026-05-06 14:14 | 50.04519 | 8.58686 | 427 ft | 130 kts | 247° |
| 2026-05-06 14:15 | 50.04223 | 8.57458 | 368 ft | 105 kts | 249° |
| 2026-05-06 14:15 | 50.03999 | 8.56546 | 359 ft | 72 kts | 250° |
| 2026-05-06 14:15 | 50.03892 | 8.56066 | 359 ft | 22 kts | 261° |
| 2026-05-06 14:15 | 50.03885 | 8.55900 | 351 ft | 15 kts | 270° |
| 2026-05-06 14:16 | 50.03898 | 8.55745 | 353 ft | 0 kts | 282° |
| 2026-05-06 14:16 | 50.03900 | 8.55736 | 351 ft | 5 kts | 282° |
| 2026-05-06 14:16 | 50.03912 | 8.55624 | 352 ft | 11 kts | 279° |
| 2026-05-06 14:16 | 50.03925 | 8.55534 | 357 ft | 9 kts | 298° |
| 2026-05-06 14:17 | 50.03956 | 8.55549 | 354 ft | 6 kts | 72° |
| 2026-05-06 14:17 | 50.03968 | 8.55612 | 356 ft | 7 kts | 72° |
| 2026-05-06 14:17 | 50.04006 | 8.55776 | 352 ft | 26 kts | 70° |
| 2026-05-06 14:17 | 50.04086 | 8.56114 | 358 ft | 40 kts | 70° |
| 2026-05-06 14:18 | 50.04169 | 8.56461 | 362 ft | 31 kts | 69° |
| 2026-05-06 14:18 | 50.04245 | 8.56778 | 362 ft | 31 kts | 70° |
| 2026-05-06 14:18 | 50.04319 | 8.57098 | 362 ft | 32 kts | 70° |
| 2026-05-06 14:18 | 50.04391 | 8.57402 | 362 ft | 24 kts | 70° |
| 2026-05-06 14:19 | 50.04448 | 8.57633 | 366 ft | 21 kts | 68° |
| 2026-05-06 14:19 | 50.04502 | 8.57842 | 369 ft | 22 kts | 68° |
| 2026-05-06 14:19 | 50.04540 | 8.57993 | 365 ft | 10 kts | 68° |
| 2026-05-06 14:19 | 50.04616 | 8.58013 | 359 ft | 15 kts | 346° |
| 2026-05-06 14:20 | 50.04732 | 8.57958 | 358 ft | 19 kts | 359° |
| 2026-05-06 14:20 | 50.04792 | 8.58101 | 360 ft | 16 kts | 70° |
| 2026-05-06 14:20 | 50.04827 | 8.58242 | 360 ft | 13 kts | 69° |
| 2026-05-06 14:20 | 50.04856 | 8.58369 | 360 ft | 12 kts | 70° |
| 2026-05-06 14:21 | 50.04883 | 8.58484 | 362 ft | 11 kts | 70° |
| 2026-05-06 14:21 | 50.04906 | 8.58585 | 362 ft | 9 kts | 70° |
| 2026-05-06 14:21 | 50.04928 | 8.58675 | 361 ft | 8 kts | 70° |
| 2026-05-06 14:21 | 50.04946 | 8.58753 | 364 ft | 7 kts | 69° |
| 2026-05-06 14:22 | 50.04964 | 8.58819 | 362 ft | 6 kts | 68° |
| 2026-05-06 14:22 | 50.04978 | 8.58874 | 364 ft | 5 kts | 69° |
| 2026-05-06 14:22 | 50.04978 | 8.58913 | 360 ft | 2 kts | 113° |
| 2026-05-06 14:22 | 50.04974 | 8.58919 | 367 ft | 0 kts | 130° |
| 2026-05-06 14:23 | 50.04952 | 8.58931 | 367 ft | 4 kts | 164° |
| 2026-05-06 14:23 | 50.04942 | 8.58935 | 365 ft | 3 kts | 163° |
| 2026-05-06 14:23 | 50.04935 | 8.58939 | 362 ft | 1 kts | 162° |
| 2026-05-06 14:23 | 50.04930 | 8.58941 | 365 ft | 2 kts | 161° |
| 2026-05-06 14:24 | 50.04929 | 8.58942 | 365 ft | 0 kts | 161° |
| 2026-05-06 14:24 | 50.04928 | 8.58943 | 365 ft | 0 kts | 160° |